This is the latest recevied weather packets stored in our database for station/object MAKIL. If no packets are shown the sender has not sent any weather packets the latest 1 day(s).
| Time | Temp. | Humidity | Pressure | Rain* | Wind** | Luminosity | Snow |
|---|---|---|---|---|---|---|---|
| 1778006838 | 5° C | 83% | - | - | 11.62 m/s, 256° | - | - |
| 1778005639 | 5° C | 82% | - | - | 12.07 m/s, 256° | - | - |
| 1778004438 | 5.56° C | 80% | - | - | 12.07 m/s, 255° | - | - |
| 1778003238 | 5.56° C | 81% | - | - | 12.07 m/s, 252° | - | - |
| 1778002038 | 5.56° C | 83% | - | - | 12.07 m/s, 250° | - | - |
| 1778000838 | 5.56° C | 83% | - | - | 11.62 m/s, 253° | - | - |
| 1777999638 | 6.11° C | 83% | - | - | 12.52 m/s, 253° | - | - |
| 1777998438 | 6.11° C | 81% | - | - | 12.07 m/s, 253° | - | - |
| 1777997238 | 6.11° C | 79% | - | - | 12.07 m/s, 253° | - | - |
| 1777996038 | 6.67° C | 79% | - | - | 12.07 m/s, 251° | - | - |
| 1777994838 | 6.67° C | 76% | - | - | 12.52 m/s, 250° | - | - |
| 1777993638 | 6.67° C | 78% | - | - | 12.07 m/s, 251° | - | - |
| 1777991238 | 7.78° C | 74% | - | - | 11.62 m/s, 248° | - | - |
| 1777990037 | 7.78° C | 73% | - | - | 12.07 m/s, 250° | - | - |
| 1777988838 | 7.22° C | 74% | - | - | 12.52 m/s, 251° | - | - |
| 1777987637 | 8.33° C | 73% | - | - | 12.07 m/s, 249° | - | - |
| 1777986438 | 7.78° C | 73% | - | - | 12.52 m/s, 250° | - | - |
| 1777985237 | 7.78° C | 72% | - | - | 12.52 m/s, 249° | - | - |
| 1777984037 | 8.33° C | 72% | - | - | 10.73 m/s, 245° | - | - |
| 1777982837 | 8.33° C | 74% | - | - | 12.52 m/s, 251° | - | - |
| 1777981637 | 8.33° C | 74% | - | - | 11.18 m/s, 246° | - | - |
| 1777980437 | 7.78° C | 76% | - | - | 12.52 m/s, 251° | - | - |
| 1777979237 | 8.33° C | 77% | - | - | 12.07 m/s, 249° | - | - |
| 1777978037 | 8.33° C | 77% | - | - | 11.18 m/s, 245° | - | - |
| 1777976837 | 8.33° C | 77% | - | - | 11.62 m/s, 245° | - | - |
* Rain since midnight (hover to see other rain measurements)
** Current wind speed in m/s (hover to see current wind gust speed)